Ocean Ranger — CFN5098 — position and weather

sailwx.info

Track history (hours):
 
Tides and Currents Weather Stations Pressure Air Temp Water Temp Dewpoint Dewpoint Depression Visibility Wind Speed Wind Dir Waves Ship Positions

Ocean Ranger

Last reported at 2018-Feb-20 21:13 UTC. Time now 2018-Feb-21 09:22 UTC.
Position N 54°17' W 130°21'.

Length 20 m.

Type: Fishing. MMSI: 316006786.

Date/timePositionNaut miles runAvg speedWind from/ knotsBaromVisibWave heightAir tempDewpointWater temp
2018-Feb-20 21:13N 54°17' W 130°21'0 0.0
2018-Feb-20 21:00N 54°17' W 130°21'0 0.0
2018-Feb-20 20:30N 54°17' W 130°21'0 0.0
2018-Feb-20 20:00N 54°17' W 130°21'0 0.0
2018-Feb-20 19:30N 54°17' W 130°21'0 0.0
2018-Feb-20 19:00N 54°17' W 130°21'0 0.0
2018-Feb-20 18:30N 54°17' W 130°21'0 0.0
2018-Feb-20 18:00N 54°17' W 130°21'0 0.0
2018-Feb-20 17:31N 54°17' W 130°21'1 1.3
2018-Feb-20 17:00N 54°18' W 130°21'2 3.5
2018-Feb-20 16:30N 54°19' W 130°19'0 0.6
2018-Feb-20 16:00N 54°19' W 130°19'0 0.1
2018-Feb-20 15:30N 54°19' W 130°19'0 0.0
2018-Feb-20 15:00N 54°19' W 130°19'0 0.0
2018-Feb-20 14:30N 54°19' W 130°19'0 0.0
2018-Feb-20 14:00N 54°19' W 130°19'0 0.0
2018-Feb-20 13:30N 54°19' W 130°19'0 0.0
2018-Feb-20 13:00N 54°19' W 130°19'0 0.0
2018-Feb-20 12:30N 54°19' W 130°19'0 0.0
2018-Feb-20 12:00N 54°19' W 130°19'4 7.3
2018-Feb-20 11:30N 54°16' W 130°21'510.4
2018-Feb-20 11:00N 54°10' W 130°20'510.4
2018-Feb-20 10:30N 54°05' W 130°18'510.8
2018-Feb-20 10:00N 54°01' W 130°13'510.0
2018-Feb-20 09:30N 53°56' W 130°14'5 9.8
2018-Feb-20 09:00N 53°51' W 130°18'5 9.4
2018-Feb-20 08:30N 53°47' W 130°14'4 0.1
2018-Feb-18 12:23N 53°43' W 130°13'410.1
2018-Feb-18 11:58N 53°47' W 130°14'4 9.3
2018-Feb-18 11:30N 53°51' W 130°18'510.4
2018-Feb-18 11:00N 53°55' W 130°15'5 9.8
2018-Feb-18 10:30N 54°00' W 130°13'5 9.2
2018-Feb-18 10:00N 54°04' W 130°17'5 9.9
2018-Feb-18 09:30N 54°09' W 130°19'5 9.9
2018-Feb-18 09:00N 54°14' W 130°21'4 7.1
2018-Feb-18 08:30N 54°18' W 130°21'0 0.1
2018-Feb-18 08:00N 54°17' W 130°21'0 0.0
2018-Feb-18 07:30N 54°17' W 130°21'0 0.0
2018-Feb-18 07:00N 54°17' W 130°21'0 0.0
2018-Feb-18 06:30N 54°17' W 130°21'0 0.0
2018-Feb-18 06:00N 54°17' W 130°21'0 0.0
2018-Feb-18 05:30N 54°17' W 130°21'0 0.0
2018-Feb-18 05:00N 54°17' W 130°21'0 0.0
2018-Feb-18 04:30N 54°17' W 130°21'0 0.0
2018-Feb-18 04:00N 54°17' W 130°21'0 0.0
2018-Feb-18 03:29N 54°17' W 130°21'0 0.0
2018-Feb-18 03:00N 54°17' W 130°21'0 0.0
2018-Feb-18 02:30N 54°17' W 130°21'0 0.0
2018-Feb-18 01:59N 54°17' W 130°21'0 0.0
2018-Feb-18 01:28N 54°17' W 130°21'0 0.0
2018-Feb-18 01:00N 54°17' W 130°21'0 0.0
2018-Feb-18 00:30N 54°17' W 130°21'0 0.0
2018-Feb-17 23:27N 54°17' W 130°21'0 0.0
2018-Feb-17 23:00N 54°17' W 130°21'0 0.0
2018-Feb-17 22:30N 54°17' W 130°21'0 0.0
2018-Feb-17 22:00N 54°17' W 130°21'0 0.0
2018-Feb-17 20:25N 54°17' W 130°21'0 0.0
2018-Feb-17 19:44N 54°17' W 130°21'0 0.0
2018-Feb-17 19:30N 54°17' W 130°21'0 0.0
2018-Feb-17 19:00N 54°17' W 130°21'0 0.0
2018-Feb-17 18:30N 54°17' W 130°21'0 0.0
2018-Feb-17 18:00N 54°17' W 130°21'0 0.0
2018-Feb-17 17:30N 54°17' W 130°21'0 0.0
2018-Feb-17 16:59N 54°17' W 130°21'0 0.0
2018-Feb-17 16:30N 54°17' W 130°21'0 0.0
2018-Feb-17 15:59N 54°17' W 130°21'0 0.0
2018-Feb-17 15:29N 54°17' W 130°21'0 0.0
2018-Feb-17 15:00N 54°17' W 130°21'0 0.0
2018-Feb-17 14:30N 54°17' W 130°21'0 0.0
2018-Feb-17 14:01N 54°17' W 130°21'0 0.0
2018-Feb-17 13:29N 54°17' W 130°21'0 0.0
2018-Feb-17 13:00N 54°17' W 130°21'0 0.0
2018-Feb-17 12:30N 54°17' W 130°21'0 0.0
2018-Feb-17 11:58N 54°17' W 130°21'0 0.0
2018-Feb-17 11:26N 54°17' W 130°21'0 0.0
2018-Feb-17 10:58N 54°17' W 130°21'0 0.0
2018-Feb-17 10:18N 54°17' W 130°21'0 0.0
2018-Feb-17 10:00N 54°17' W 130°21'0 0.0
2018-Feb-17 09:30N 54°17' W 130°21'0 0.0
2018-Feb-17 09:00N 54°17' W 130°21'0 0.0
2018-Feb-17 08:30N 54°17' W 130°21'0 0.0
2018-Feb-17 08:00N 54°17' W 130°21'0 0.0
2018-Feb-17 07:30N 54°17' W 130°21'0 0.0
2018-Feb-17 07:00N 54°17' W 130°21'0 0.0
2018-Feb-17 06:30N 54°17' W 130°21'0 0.0
2018-Feb-17 05:58N 54°17' W 130°21'0 0.0
2018-Feb-17 01:40N 54°17' W 130°21'0 0.0
2018-Feb-17 01:30N 54°17' W 130°21'0 0.0
2018-Feb-17 01:00N 54°17' W 130°21'0 0.0
2018-Feb-16 23:36N 54°17' W 130°21'0 0.0
2018-Feb-16 23:30N 54°17' W 130°21'0 0.0
2018-Feb-16 23:00N 54°17' W 130°21'0 0.0
2018-Feb-16 22:29N 54°17' W 130°21'0 0.0
2018-Feb-16 21:47N 54°17' W 130°21'0 0.0
2018-Feb-16 21:27N 54°17' W 130°21'0 0.0
2018-Feb-16 20:49N 54°17' W 130°21'0 0.0
2018-Feb-16 19:45N 54°17' W 130°21'0 0.0
2018-Feb-16 19:18N 54°17' W 130°21'0 0.0
2018-Feb-16 18:59N 54°17' W 130°21'0 0.0
2018-Feb-16 18:30N 54°17' W 130°21'0 0.0
2018-Feb-16 16:47N 54°17' W 130°21'1 4.8
2018-Feb-16 16:30N 54°19' W 130°20'1 1.9
2018-Feb-16 16:00N 54°19' W 130°19'0 0.7
2018-Feb-16 15:30N 54°19' W 130°20'0 0.2
2018-Feb-16 15:00N 54°19' W 130°19'0 0.0
2018-Feb-16 14:30N 54°19' W 130°19'0 0.0
2018-Feb-16 14:00N 54°19' W 130°19'0 0.0
2018-Feb-16 13:30N 54°19' W 130°19'0 0.0
2018-Feb-16 13:00N 54°19' W 130°19'0 0.0
2018-Feb-16 12:30N 54°19' W 130°19'0 0.0
2018-Feb-16 12:00N 54°19' W 130°19'0 0.0
2018-Feb-16 11:30N 54°19' W 130°19'0 0.0
2018-Feb-16 10:59N 54°19' W 130°19'0 0.0
2018-Feb-16 10:30N 54°19' W 130°19'0 0.0
2018-Feb-16 10:00N 54°19' W 130°19'2 4.7
2018-Feb-16 09:30N 54°17' W 130°22'510.3
2018-Feb-16 09:00N 54°12' W 130°21'510.0
2018-Feb-16 08:30N 54°07' W 130°19'510.7
2018-Feb-16 08:00N 54°02' W 130°15'510.6
2018-Feb-16 07:30N 53°57' W 130°13'510.0
2018-Feb-16 07:00N 53°53' W 130°17'5 8.9
2018-Feb-16 06:29N 53°48' W 130°15'  
2018-Feb-13 15:55N 53°43' W 130°12'3 8.0
2018-Feb-13 15:30N 53°47' W 130°13'4 8.7
2018-Feb-13 15:00N 53°50' W 130°18'4 8.8
2018-Feb-13 14:31N 53°54' W 130°16'5 9.3
2018-Feb-13 14:01N 53°58' W 130°13'4 8.5
2018-Feb-13 13:30N 54°02' W 130°15'4 8.6
2018-Feb-13 13:01N 54°06' W 130°18'4 8.8
2018-Feb-13 12:31N 54°10' W 130°20'5 9.5
2018-Feb-13 12:01N 54°15' W 130°21'2 4.5
2018-Feb-13 11:30N 54°17' W 130°21'0 0.0
2018-Feb-13 11:00N 54°17' W 130°21'0 0.0
2018-Feb-13 10:30N 54°17' W 130°21'0 0.0
2018-Feb-13 10:00N 54°17' W 130°21'0 0.0
2018-Feb-13 09:30N 54°17' W 130°21'0 0.0
2018-Feb-13 09:00N 54°17' W 130°21'0 0.0
2018-Feb-13 08:30N 54°17' W 130°21'0 0.0
2018-Feb-13 08:00N 54°17' W 130°21'0 0.0
2018-Feb-13 07:30N 54°17' W 130°21'0 0.0
2018-Feb-13 07:00N 54°17' W 130°21'0 0.0
2018-Feb-13 06:30N 54°17' W 130°21'0 0.0
2018-Feb-13 06:00N 54°17' W 130°21'0 0.0
2018-Feb-13 05:30N 54°17' W 130°21'0 0.0
2018-Feb-13 05:00N 54°17' W 130°21'0 0.0
2018-Feb-13 04:30N 54°17' W 130°21'0 0.0
2018-Feb-13 04:00N 54°17' W 130°21'0 0.0
2018-Feb-13 03:30N 54°17' W 130°21'0 0.0
2018-Feb-13 03:00N 54°17' W 130°21'0 0.0
2018-Feb-13 02:30N 54°17' W 130°21'0 0.0
2018-Feb-13 02:00N 54°17' W 130°21'0 0.0
2018-Feb-13 01:30N 54°17' W 130°21'0 0.0
2018-Feb-13 01:00N 54°17' W 130°21'0 0.0
2018-Feb-13 00:30N 54°17' W 130°21'0 0.0
2018-Feb-13 00:00N 54°17' W 130°21'0 0.0
2018-Feb-12 23:30N 54°17' W 130°21'0 0.0
2018-Feb-12 23:00N 54°17' W 130°21'0 0.0
2018-Feb-12 22:30N 54°17' W 130°21'0 0.0
2018-Feb-12 22:00N 54°17' W 130°21'0 0.0
2018-Feb-12 21:30N 54°17' W 130°21'0 0.0
2018-Feb-12 21:00N 54°17' W 130°21'0 0.0
2018-Feb-12 20:30N 54°17' W 130°21'0 0.0
2018-Feb-12 20:00N 54°17' W 130°21'0 0.0
2018-Feb-12 19:30N 54°17' W 130°21'0 0.0
2018-Feb-12 19:00N 54°17' W 130°21'0 0.0
2018-Feb-12 18:30N 54°17' W 130°21'0 0.0
2018-Feb-12 18:00N 54°17' W 130°21'0 0.0
2018-Feb-12 17:30N 54°17' W 130°21'0 0.0
2018-Feb-12 17:00N 54°17' W 130°21'0 0.0
2018-Feb-12 16:30N 54°17' W 130°21'0 0.0
2018-Feb-12 16:00N 54°17' W 130°21'0 0.0
2018-Feb-12 15:30N 54°17' W 130°21'0 0.0
2018-Feb-12 15:00N 54°17' W 130°21'0 0.0
2018-Feb-12 14:30N 54°17' W 130°21'0 0.0
2018-Feb-12 14:00N 54°17' W 130°21'0 0.0
2018-Feb-12 13:30N 54°17' W 130°21'0 0.0
2018-Feb-12 13:00N 54°17' W 130°21'0 0.0
2018-Feb-12 12:30N 54°17' W 130°21'0 0.0
2018-Feb-12 12:00N 54°17' W 130°21'0 0.0
2018-Feb-12 11:30N 54°17' W 130°21'0 0.0
2018-Feb-12 11:00N 54°17' W 130°21'0 0.0
2018-Feb-12 10:30N 54°17' W 130°21'0 0.0
2018-Feb-12 10:00N 54°17' W 130°21'0 0.0
2018-Feb-12 09:30N 54°17' W 130°21'0 0.0
2018-Feb-12 09:00N 54°17' W 130°21'0 0.0
2018-Feb-12 08:30N 54°17' W 130°21'0 0.0
2018-Feb-12 08:00N 54°17' W 130°21'0 0.0
2018-Feb-12 07:29N 54°17' W 130°21'0 0.0
2018-Feb-12 07:00N 54°17' W 130°21'0 0.0
2018-Feb-12 06:30N 54°17' W 130°21'0 0.0
2018-Feb-12 06:00N 54°17' W 130°21'0 0.0
2018-Feb-12 05:30N 54°17' W 130°21'0 0.0
2018-Feb-12 05:00N 54°17' W 130°21'0 0.0
2018-Feb-12 04:30N 54°17' W 130°21'0 0.0
2018-Feb-12 04:00N 54°17' W 130°21'0 0.0
2018-Feb-12 03:30N 54°17' W 130°21'0 0.0
2018-Feb-12 03:00N 54°17' W 130°21'0 0.0
2018-Feb-12 02:30N 54°17' W 130°21'0 0.0
2018-Feb-12 02:00N 54°17' W 130°21'0 0.0
2018-Feb-12 01:30N 54°17' W 130°21'0 0.0
2018-Feb-12 01:00N 54°17' W 130°21'0 0.0
2018-Feb-12 00:30N 54°17' W 130°21'0 0.0
2018-Feb-12 00:00N 54°17' W 130°21'0 0.0
2018-Feb-11 23:30N 54°17' W 130°21'0 0.0
2018-Feb-11 23:00N 54°17' W 130°21'0 0.0
2018-Feb-11 22:30N 54°17' W 130°21'0 0.0
2018-Feb-11 22:00N 54°17' W 130°21'0 0.0
2018-Feb-11 21:30N 54°17' W 130°21'0 0.0
2018-Feb-11 20:58N 54°17' W 130°21'0 0.0
2018-Feb-11 20:30N 54°17' W 130°21'0 0.0
2018-Feb-11 20:00N 54°17' W 130°21'0 0.0
2018-Feb-11 19:30N 54°17' W 130°21'0 0.0
2018-Feb-11 19:00N 54°17' W 130°21'0 0.0
2018-Feb-11 18:30N 54°17' W 130°21'0 0.0
2018-Feb-11 18:00N 54°17' W 130°21'0 0.0
2018-Feb-11 17:29N 54°17' W 130°21'0 0.0
2018-Feb-11 17:00N 54°17' W 130°21'0 0.0
2018-Feb-11 16:30N 54°17' W 130°21'0 0.0
2018-Feb-11 16:00N 54°17' W 130°21'0 0.0
2018-Feb-11 15:30N 54°17' W 130°21'0 0.0
2018-Feb-11 15:00N 54°17' W 130°21'0 0.0
2018-Feb-11 14:30N 54°17' W 130°21'0 0.0
2018-Feb-11 14:00N 54°17' W 130°21'0 0.0
2018-Feb-11 13:30N 54°17' W 130°21'0 0.0
2018-Feb-11 13:00N 54°17' W 130°21'0 0.0
2018-Feb-11 12:30N 54°17' W 130°21'0 0.0
2018-Feb-11 12:00N 54°17' W 130°21'0 0.0
2018-Feb-11 11:30N 54°17' W 130°21'0 0.0
2018-Feb-11 11:00N 54°17' W 130°21'0 0.0
2018-Feb-11 10:30N 54°17' W 130°21'0 0.0
2018-Feb-11 10:00N 54°17' W 130°21'0 0.0
2018-Feb-11 09:30N 54°17' W 130°21'0 0.0
2018-Feb-11 09:00N 54°17' W 130°21'0 0.0
2018-Feb-11 08:30N 54°17' W 130°21'0 0.0
2018-Feb-11 08:00N 54°17' W 130°21'0 0.0
2018-Feb-11 07:30N 54°17' W 130°21'0 0.0
2018-Feb-11 07:00N 54°17' W 130°21'0 0.0
2018-Feb-11 06:30N 54°17' W 130°21'0 0.0
2018-Feb-11 06:00N 54°17' W 130°21'0 0.0
2018-Feb-11 05:30N 54°17' W 130°21'0 0.0
2018-Feb-11 05:00N 54°17' W 130°21'0 0.0
2018-Feb-11 04:30N 54°17' W 130°21'0 0.0
2018-Feb-11 04:00N 54°17' W 130°21'0 0.0
2018-Feb-11 03:30N 54°17' W 130°21'0 0.0
2018-Feb-11 03:00N 54°17' W 130°21'0 0.0
2018-Feb-11 02:30N 54°17' W 130°21'0 0.0
2018-Feb-11 02:00N 54°17' W 130°21'0 0.0
2018-Feb-11 01:30N 54°17' W 130°21'0 0.0
2018-Feb-11 01:00N 54°17' W 130°21'0 0.0
2018-Feb-11 00:30N 54°17' W 130°21'0 0.0
2018-Feb-11 00:00N 54°17' W 130°21'0 0.0
2018-Feb-10 23:30N 54°17' W 130°21'0 0.0
2018-Feb-10 23:00N 54°17' W 130°21'0 0.0
2018-Feb-10 22:30N 54°17' W 130°21'0 0.0
2018-Feb-10 22:00N 54°17' W 130°21'0 0.0
2018-Feb-10 21:30N 54°17' W 130°21'  
Track history (hours):
 
Tides and Currents Weather Stations Pressure Air Temp Water Temp Dewpoint Dewpoint Depression Visibility Wind Speed Wind Dir Waves Ship Positions

Ocean Ranger

Last reported at 2018-Feb-20 21:13 UTC. Time now 2018-Feb-21 09:22 UTC.
Position N 54°17' W 130°21'.

Length 20 m.

Type: Fishing. MMSI: 316006786.

Date/timePositionNaut miles runAvg speedWind from/ knotsBaromVisibWave heightAir tempDewpointWater temp
2018-Feb-20 21:13N 54°17' W 130°21'0 0.0
2018-Feb-20 21:00N 54°17' W 130°21'0 0.0
2018-Feb-20 20:30N 54°17' W 130°21'0 0.0
2018-Feb-20 20:00N 54°17' W 130°21'0 0.0
2018-Feb-20 19:30N 54°17' W 130°21'0 0.0
2018-Feb-20 19:00N 54°17' W 130°21'0 0.0
2018-Feb-20 18:30N 54°17' W 130°21'0 0.0
2018-Feb-20 18:00N 54°17' W 130°21'0 0.0
2018-Feb-20 17:31N 54°17' W 130°21'1 1.3
2018-Feb-20 17:00N 54°18' W 130°21'2 3.5
2018-Feb-20 16:30N 54°19' W 130°19'0 0.6
2018-Feb-20 16:00N 54°19' W 130°19'0 0.1
2018-Feb-20 15:30N 54°19' W 130°19'0 0.0
2018-Feb-20 15:00N 54°19' W 130°19'0 0.0
2018-Feb-20 14:30N 54°19' W 130°19'0 0.0
2018-Feb-20 14:00N 54°19' W 130°19'0 0.0
2018-Feb-20 13:30N 54°19' W 130°19'0 0.0
2018-Feb-20 13:00N 54°19' W 130°19'0 0.0
2018-Feb-20 12:30N 54°19' W 130°19'0 0.0
2018-Feb-20 12:00N 54°19' W 130°19'4 7.3
2018-Feb-20 11:30N 54°16' W 130°21'510.4
2018-Feb-20 11:00N 54°10' W 130°20'510.4
2018-Feb-20 10:30N 54°05' W 130°18'510.8
2018-Feb-20 10:00N 54°01' W 130°13'510.0
2018-Feb-20 09:30N 53°56' W 130°14'5 9.8
2018-Feb-20 09:00N 53°51' W 130°18'5 9.4
2018-Feb-20 08:30N 53°47' W 130°14'4 0.1
2018-Feb-18 12:23N 53°43' W 130°13'410.1
2018-Feb-18 11:58N 53°47' W 130°14'4 9.3
2018-Feb-18 11:30N 53°51' W 130°18'510.4
2018-Feb-18 11:00N 53°55' W 130°15'5 9.8
2018-Feb-18 10:30N 54°00' W 130°13'5 9.2
2018-Feb-18 10:00N 54°04' W 130°17'5 9.9
2018-Feb-18 09:30N 54°09' W 130°19'5 9.9
2018-Feb-18 09:00N 54°14' W 130°21'4 7.1
2018-Feb-18 08:30N 54°18' W 130°21'0 0.1
2018-Feb-18 08:00N 54°17' W 130°21'0 0.0
2018-Feb-18 07:30N 54°17' W 130°21'0 0.0
2018-Feb-18 07:00N 54°17' W 130°21'0 0.0
2018-Feb-18 06:30N 54°17' W 130°21'0 0.0
2018-Feb-18 06:00N 54°17' W 130°21'0 0.0
2018-Feb-18 05:30N 54°17' W 130°21'0 0.0
2018-Feb-18 05:00N 54°17' W 130°21'0 0.0
2018-Feb-18 04:30N 54°17' W 130°21'0 0.0
2018-Feb-18 04:00N 54°17' W 130°21'0 0.0
2018-Feb-18 03:29N 54°17' W 130°21'0 0.0
2018-Feb-18 03:00N 54°17' W 130°21'0 0.0
2018-Feb-18 02:30N 54°17' W 130°21'0 0.0
2018-Feb-18 01:59N 54°17' W 130°21'0 0.0
2018-Feb-18 01:28N 54°17' W 130°21'0 0.0
2018-Feb-18 01:00N 54°17' W 130°21'0 0.0
2018-Feb-18 00:30N 54°17' W 130°21'0 0.0
2018-Feb-17 23:27N 54°17' W 130°21'0 0.0
2018-Feb-17 23:00N 54°17' W 130°21'0 0.0
2018-Feb-17 22:30N 54°17' W 130°21'0 0.0
2018-Feb-17 22:00N 54°17' W 130°21'0 0.0
2018-Feb-17 20:25N 54°17' W 130°21'0 0.0
2018-Feb-17 19:44N 54°17' W 130°21'0 0.0
2018-Feb-17 19:30N 54°17' W 130°21'0 0.0
2018-Feb-17 19:00N 54°17' W 130°21'0 0.0
2018-Feb-17 18:30N 54°17' W 130°21'0 0.0
2018-Feb-17 18:00N 54°17' W 130°21'0 0.0
2018-Feb-17 17:30N 54°17' W 130°21'0 0.0
2018-Feb-17 16:59N 54°17' W 130°21'0 0.0
2018-Feb-17 16:30N 54°17' W 130°21'0 0.0
2018-Feb-17 15:59N 54°17' W 130°21'0 0.0
2018-Feb-17 15:29N 54°17' W 130°21'0 0.0
2018-Feb-17 15:00N 54°17' W 130°21'0 0.0
2018-Feb-17 14:30N 54°17' W 130°21'0 0.0
2018-Feb-17 14:01N 54°17' W 130°21'0 0.0
2018-Feb-17 13:29N 54°17' W 130°21'0 0.0
2018-Feb-17 13:00N 54°17' W 130°21'0 0.0
2018-Feb-17 12:30N 54°17' W 130°21'0 0.0
2018-Feb-17 11:58N 54°17' W 130°21'0 0.0
2018-Feb-17 11:26N 54°17' W 130°21'0 0.0
2018-Feb-17 10:58N 54°17' W 130°21'0 0.0
2018-Feb-17 10:18N 54°17' W 130°21'0 0.0
2018-Feb-17 10:00N 54°17' W 130°21'0 0.0
2018-Feb-17 09:30N 54°17' W 130°21'0 0.0
2018-Feb-17 09:00N 54°17' W 130°21'0 0.0
2018-Feb-17 08:30N 54°17' W 130°21'0 0.0
2018-Feb-17 08:00N 54°17' W 130°21'0 0.0
2018-Feb-17 07:30N 54°17' W 130°21'0 0.0
2018-Feb-17 07:00N 54°17' W 130°21'0 0.0
2018-Feb-17 06:30N 54°17' W 130°21'0 0.0
2018-Feb-17 05:58N 54°17' W 130°21'0 0.0
2018-Feb-17 01:40N 54°17' W 130°21'0 0.0
2018-Feb-17 01:30N 54°17' W 130°21'0 0.0
2018-Feb-17 01:00N 54°17' W 130°21'0 0.0
2018-Feb-16 23:36N 54°17' W 130°21'0 0.0
2018-Feb-16 23:30N 54°17' W 130°21'0 0.0
2018-Feb-16 23:00N 54°17' W 130°21'0 0.0
2018-Feb-16 22:29N 54°17' W 130°21'0 0.0
2018-Feb-16 21:47N 54°17' W 130°21'0 0.0
2018-Feb-16 21:27N 54°17' W 130°21'0 0.0
2018-Feb-16 20:49N 54°17' W 130°21'0 0.0
2018-Feb-16 19:45N 54°17' W 130°21'0 0.0
2018-Feb-16 19:18N 54°17' W 130°21'0 0.0
2018-Feb-16 18:59N 54°17' W 130°21'0 0.0
2018-Feb-16 18:30N 54°17' W 130°21'0 0.0
2018-Feb-16 16:47N 54°17' W 130°21'1 4.8
2018-Feb-16 16:30N 54°19' W 130°20'1 1.9
2018-Feb-16 16:00N 54°19' W 130°19'0 0.7
2018-Feb-16 15:30N 54°19' W 130°20'0 0.2
2018-Feb-16 15:00N 54°19' W 130°19'0 0.0
2018-Feb-16 14:30N 54°19' W 130°19'0 0.0
2018-Feb-16 14:00N 54°19' W 130°19'0 0.0
2018-Feb-16 13:30N 54°19' W 130°19'0 0.0
2018-Feb-16 13:00N 54°19' W 130°19'0 0.0
2018-Feb-16 12:30N 54°19' W 130°19'0 0.0
2018-Feb-16 12:00N 54°19' W 130°19'0 0.0
2018-Feb-16 11:30N 54°19' W 130°19'0 0.0
2018-Feb-16 10:59N 54°19' W 130°19'0 0.0
2018-Feb-16 10:30N 54°19' W 130°19'0 0.0
2018-Feb-16 10:00N 54°19' W 130°19'2 4.7
2018-Feb-16 09:30N 54°17' W 130°22'510.3
2018-Feb-16 09:00N 54°12' W 130°21'510.0
2018-Feb-16 08:30N 54°07' W 130°19'510.7
2018-Feb-16 08:00N 54°02' W 130°15'510.6
2018-Feb-16 07:30N 53°57' W 130°13'510.0
2018-Feb-16 07:00N 53°53' W 130°17'5 8.9
2018-Feb-16 06:29N 53°48' W 130°15'  
2018-Feb-13 15:55N 53°43' W 130°12'3 8.0
2018-Feb-13 15:30N 53°47' W 130°13'4 8.7
2018-Feb-13 15:00N 53°50' W 130°18'4 8.8
2018-Feb-13 14:31N 53°54' W 130°16'5 9.3
2018-Feb-13 14:01N 53°58' W 130°13'4 8.5
2018-Feb-13 13:30N 54°02' W 130°15'4 8.6
2018-Feb-13 13:01N 54°06' W 130°18'4 8.8
2018-Feb-13 12:31N 54°10' W 130°20'5 9.5
2018-Feb-13 12:01N 54°15' W 130°21'2 4.5
2018-Feb-13 11:30N 54°17' W 130°21'0 0.0
2018-Feb-13 11:00N 54°17' W 130°21'0 0.0
2018-Feb-13 10:30N 54°17' W 130°21'0 0.0
2018-Feb-13 10:00N 54°17' W 130°21'0 0.0
2018-Feb-13 09:30N 54°17' W 130°21'0 0.0
2018-Feb-13 09:00N 54°17' W 130°21'0 0.0
2018-Feb-13 08:30N 54°17' W 130°21'0 0.0
2018-Feb-13 08:00N 54°17' W 130°21'0 0.0
2018-Feb-13 07:30N 54°17' W 130°21'0 0.0
2018-Feb-13 07:00N 54°17' W 130°21'0 0.0
2018-Feb-13 06:30N 54°17' W 130°21'0 0.0
2018-Feb-13 06:00N 54°17' W 130°21'0 0.0
2018-Feb-13 05:30N 54°17' W 130°21'0 0.0
2018-Feb-13 05:00N 54°17' W 130°21'0 0.0
2018-Feb-13 04:30N 54°17' W 130°21'0 0.0
2018-Feb-13 04:00N 54°17' W 130°21'0 0.0
2018-Feb-13 03:30N 54°17' W 130°21'0 0.0
2018-Feb-13 03:00N 54°17' W 130°21'0 0.0
2018-Feb-13 02:30N 54°17' W 130°21'0 0.0
2018-Feb-13 02:00N 54°17' W 130°21'0 0.0
2018-Feb-13 01:30N 54°17' W 130°21'0 0.0
2018-Feb-13 01:00N 54°17' W 130°21'0 0.0
2018-Feb-13 00:30N 54°17' W 130°21'0 0.0
2018-Feb-13 00:00N 54°17' W 130°21'0 0.0
2018-Feb-12 23:30N 54°17' W 130°21'0 0.0
2018-Feb-12 23:00N 54°17' W 130°21'0 0.0
2018-Feb-12 22:30N 54°17' W 130°21'0 0.0
2018-Feb-12 22:00N 54°17' W 130°21'0 0.0
2018-Feb-12 21:30N 54°17' W 130°21'0 0.0
2018-Feb-12 21:00N 54°17' W 130°21'0 0.0
2018-Feb-12 20:30N 54°17' W 130°21'0 0.0
2018-Feb-12 20:00N 54°17' W 130°21'0 0.0
2018-Feb-12 19:30N 54°17' W 130°21'0 0.0
2018-Feb-12 19:00N 54°17' W 130°21'0 0.0
2018-Feb-12 18:30N 54°17' W 130°21'0 0.0
2018-Feb-12 18:00N 54°17' W 130°21'0 0.0
2018-Feb-12 17:30N 54°17' W 130°21'0 0.0
2018-Feb-12 17:00N 54°17' W 130°21'0 0.0
2018-Feb-12 16:30N 54°17' W 130°21'0 0.0
2018-Feb-12 16:00N 54°17' W 130°21'0 0.0
2018-Feb-12 15:30N 54°17' W 130°21'0 0.0
2018-Feb-12 15:00N 54°17' W 130°21'0 0.0
2018-Feb-12 14:30N 54°17' W 130°21'0 0.0
2018-Feb-12 14:00N 54°17' W 130°21'0 0.0
2018-Feb-12 13:30N 54°17' W 130°21'0 0.0
2018-Feb-12 13:00N 54°17' W 130°21'0 0.0
2018-Feb-12 12:30N 54°17' W 130°21'0 0.0
2018-Feb-12 12:00N 54°17' W 130°21'0 0.0
2018-Feb-12 11:30N 54°17' W 130°21'0 0.0
2018-Feb-12 11:00N 54°17' W 130°21'0 0.0
2018-Feb-12 10:30N 54°17' W 130°21'0 0.0
2018-Feb-12 10:00N 54°17' W 130°21'0 0.0
2018-Feb-12 09:30N 54°17' W 130°21'0 0.0
2018-Feb-12 09:00N 54°17' W 130°21'0 0.0
2018-Feb-12 08:30N 54°17' W 130°21'0 0.0
2018-Feb-12 08:00N 54°17' W 130°21'0 0.0
2018-Feb-12 07:29N 54°17' W 130°21'0 0.0
2018-Feb-12 07:00N 54°17' W 130°21'0 0.0
2018-Feb-12 06:30N 54°17' W 130°21'0 0.0
2018-Feb-12 06:00N 54°17' W 130°21'0 0.0
2018-Feb-12 05:30N 54°17' W 130°21'0 0.0
2018-Feb-12 05:00N 54°17' W 130°21'0 0.0
2018-Feb-12 04:30N 54°17' W 130°21'0 0.0
2018-Feb-12 04:00N 54°17' W 130°21'0 0.0
2018-Feb-12 03:30N 54°17' W 130°21'0 0.0
2018-Feb-12 03:00N 54°17' W 130°21'0 0.0
2018-Feb-12 02:30N 54°17' W 130°21'0 0.0
2018-Feb-12 02:00N 54°17' W 130°21'0 0.0
2018-Feb-12 01:30N 54°17' W 130°21'0 0.0
2018-Feb-12 01:00N 54°17' W 130°21'0 0.0
2018-Feb-12 00:30N 54°17' W 130°21'0 0.0
2018-Feb-12 00:00N 54°17' W 130°21'0 0.0
2018-Feb-11 23:30N 54°17' W 130°21'0 0.0
2018-Feb-11 23:00N 54°17' W 130°21'0 0.0
2018-Feb-11 22:30N 54°17' W 130°21'0 0.0
2018-Feb-11 22:00N 54°17' W 130°21'0 0.0
2018-Feb-11 21:30N 54°17' W 130°21'0 0.0
2018-Feb-11 20:58N 54°17' W 130°21'0 0.0
2018-Feb-11 20:30N 54°17' W 130°21'0 0.0
2018-Feb-11 20:00N 54°17' W 130°21'0 0.0
2018-Feb-11 19:30N 54°17' W 130°21'0 0.0
2018-Feb-11 19:00N 54°17' W 130°21'0 0.0
2018-Feb-11 18:30N 54°17' W 130°21'0 0.0
2018-Feb-11 18:00N 54°17' W 130°21'0 0.0
2018-Feb-11 17:29N 54°17' W 130°21'0 0.0
2018-Feb-11 17:00N 54°17' W 130°21'0 0.0
2018-Feb-11 16:30N 54°17' W 130°21'0 0.0
2018-Feb-11 16:00N 54°17' W 130°21'0 0.0
2018-Feb-11 15:30N 54°17' W 130°21'0 0.0
2018-Feb-11 15:00N 54°17' W 130°21'0 0.0
2018-Feb-11 14:30N 54°17' W 130°21'0 0.0
2018-Feb-11 14:00N 54°17' W 130°21'0 0.0
2018-Feb-11 13:30N 54°17' W 130°21'0 0.0
2018-Feb-11 13:00N 54°17' W 130°21'0 0.0
2018-Feb-11 12:30N 54°17' W 130°21'0 0.0
2018-Feb-11 12:00N 54°17' W 130°21'0 0.0
2018-Feb-11 11:30N 54°17' W 130°21'0 0.0
2018-Feb-11 11:00N 54°17' W 130°21'0 0.0
2018-Feb-11 10:30N 54°17' W 130°21'0 0.0
2018-Feb-11 10:00N 54°17' W 130°21'0 0.0
2018-Feb-11 09:30N 54°17' W 130°21'0 0.0
2018-Feb-11 09:00N 54°17' W 130°21'0 0.0
2018-Feb-11 08:30N 54°17' W 130°21'0 0.0
2018-Feb-11 08:00N 54°17' W 130°21'0 0.0
2018-Feb-11 07:30N 54°17' W 130°21'0 0.0
2018-Feb-11 07:00N 54°17' W 130°21'0 0.0
2018-Feb-11 06:30N 54°17' W 130°21'0 0.0
2018-Feb-11 06:00N 54°17' W 130°21'0 0.0
2018-Feb-11 05:30N 54°17' W 130°21'0 0.0
2018-Feb-11 05:00N 54°17' W 130°21'0 0.0
2018-Feb-11 04:30N 54°17' W 130°21'0 0.0
2018-Feb-11 04:00N 54°17' W 130°21'0 0.0
2018-Feb-11 03:30N 54°17' W 130°21'0 0.0
2018-Feb-11 03:00N 54°17' W 130°21'0 0.0
2018-Feb-11 02:30N 54°17' W 130°21'0 0.0
2018-Feb-11 02:00N 54°17' W 130°21'0 0.0
2018-Feb-11 01:30N 54°17' W 130°21'0 0.0
2018-Feb-11 01:00N 54°17' W 130°21'0 0.0
2018-Feb-11 00:30N 54°17' W 130°21'0 0.0
2018-Feb-11 00:00N 54°17' W 130°21'0 0.0
2018-Feb-10 23:30N 54°17' W 130°21'0 0.0
2018-Feb-10 23:00N 54°17' W 130°21'0 0.0
2018-Feb-10 22:30N 54°17' W 130°21'0 0.0
2018-Feb-10 22:00N 54°17' W 130°21'0 0.0
2018-Feb-10 21:30N 54°17' W 130°21'  

Dump ship's entire track history